Time;durP1;ratioP1;P1;durP2;ratioP2;P2;SDS_P1;SDS_P2;PMS_P1;PMS_P2;Temp;Humidity;BMP_temperature;BMP_pressure;BME280_temperature;BME280_humidity;BME280_pressure;Samples;Min_cycle;Max_cycle;Signal;HPM_P1;HPM_P2
2022/02/26 00:00:20;;;;;;;33.58;14.18;;;;;;;2.15;67.99;101348.06;10383878;28;20572;-69
2022/02/26 00:05:22;;;;;;;35.47;15.30;;;;;;;2.22;67.95;101354.06;10382845;28;20045;-69
2022/02/26 00:10:24;;;;;;;27.08;13.27;;;;;;;2.32;67.79;101358.31;10383362;28;20049;-69
2022/02/26 00:15:26;;;;;;;35.28;13.57;;;;;;;2.42;67.76;101370.34;10389164;28;20053;-69
2022/02/26 00:20:28;;;;;;;33.53;13.15;;;;;;;2.50;67.73;101372.91;10390722;28;20057;-69
2022/02/26 00:25:30;;;;;;;37.15;13.52;;;;;;;2.47;67.74;101378.94;10391186;28;20592;-68
2022/02/26 00:30:32;;;;;;;30.80;13.02;;;;;;;2.53;67.71;101384.09;10391048;28;20061;-69
2022/02/26 00:35:33;;;;;;;42.47;14.48;;;;;;;2.53;67.63;101393.53;10390213;28;20056;-69
2022/02/26 00:40:35;;;;;;;28.80;13.68;;;;;;;2.48;67.33;101398.72;10390957;28;20057;-69
2022/02/26 00:45:37;;;;;;;35.70;12.88;;;;;;;2.37;67.53;101399.63;10387775;28;20052;-69
2022/02/26 00:50:39;;;;;;;35.72;12.52;;;;;;;2.19;67.87;101411.69;10389714;28;20064;-69
2022/02/26 00:55:41;;;;;;;27.23;12.43;;;;;;;2.11;67.77;101412.59;10389735;28;20050;-69
2022/02/26 01:00:42;;;;;;;37.72;13.05;;;;;;;2.04;68.03;101419.50;10388035;28;20045;-70
2022/02/26 01:05:44;;;;;;;33.58;11.30;;;;;;;2.00;67.61;101414.34;10387780;28;20049;-69
2022/02/26 01:10:46;;;;;;;32.47;10.60;;;;;;;1.95;67.84;101414.34;10389901;28;20045;-69
2022/02/26 01:15:48;;;;;;;33.60;11.82;;;;;;;1.87;67.96;101415.22;10387333;28;20060;-69
2022/02/26 01:20:50;;;;;;;34.20;11.77;;;;;;;1.81;67.97;101410.03;10386508;28;20064;-69
2022/02/26 01:25:51;;;;;;;23.92;10.93;;;;;;;1.77;67.90;101414.34;10387072;28;20045;-69
2022/02/26 01:30:53;;;;;;;31.20;10.35;;;;;;;1.73;67.82;101416.94;10387398;28;20517;-69
2022/02/26 01:35:55;;;;;;;30.65;10.98;;;;;;;1.68;67.86;101421.25;10388330;28;20049;-69
2022/02/26 01:40:57;;;;;;;37.13;11.32;;;;;;;1.57;68.01;101428.09;10387981;28;20049;-70
2022/02/26 01:45:59;;;;;;;32.83;11.88;;;;;;;1.41;68.00;101437.53;10387338;28;20136;-69
2022/02/26 01:51:02;;;;;;;25.65;12.32;;;;;;;1.19;68.19;101446.09;10386599;28;20144;-69
2022/02/26 01:56:05;;;;;;;25.90;11.20;;;;;;;1.25;68.30;101451.25;10387040;28;20126;-69
2022/02/26 02:01:08;;;;;;;35.78;10.38;;;;;;;1.47;68.33;101462.47;10388083;28;20049;-69
2022/02/26 02:06:11;;;;;;;29.92;10.63;;;;;;;1.60;67.97;101462.50;10387063;28;20104;-69
2022/02/26 02:11:13;;;;;;;31.75;12.30;;;;;;;1.50;67.85;101472.78;10387138;28;21723;-69
2022/02/26 02:16:18;;;;;;;37.30;13.93;;;;;;;1.36;68.07;101463.31;10386274;28;20041;-68
2022/02/26 02:21:21;;;;;;;31.38;13.20;;;;;;;1.18;68.24;101473.56;10384705;28;20493;-69
2022/02/26 02:26:22;;;;;;;42.60;14.43;;;;;;;1.00;68.58;101481.25;10384997;28;20041;-68
2022/02/26 02:31:24;;;;;;;32.30;12.05;;;;;;;0.98;68.69;101487.25;10386066;28;20046;-69
2022/02/26 02:36:26;;;;;;;35.58;14.68;;;;;;;0.93;68.87;101478.66;10385307;28;20433;-68
2022/02/26 02:41:28;;;;;;;32.72;13.80;;;;;;;0.82;68.96;101478.59;10385380;28;20053;-68
2022/02/26 02:46:29;;;;;;;40.40;14.23;;;;;;;0.79;69.07;101476.00;10384936;28;20165;-69
2022/02/26 02:51:31;;;;;;;48.22;16.10;;;;;;;0.69;68.84;101494.84;10385353;28;20045;-68
2022/02/26 02:56:33;;;;;;;39.80;15.70;;;;;;;0.62;68.97;101492.22;10385194;28;20049;-69
2022/02/26 03:01:35;;;;;;;38.08;14.75;;;;;;;0.58;69.16;101493.94;10386443;28;20057;-68
2022/02/26 03:06:37;;;;;;;50.08;17.42;;;;;;;0.55;69.28;101493.91;10392238;28;20049;-69
2022/02/26 03:11:39;;;;;;;38.85;15.18;;;;;;;0.52;69.40;101520.47;10391501;28;20041;-69
2022/02/26 03:16:41;;;;;;;42.88;16.23;;;;;;;0.37;69.31;101524.69;10392542;28;20045;-69
2022/02/26 03:21:42;;;;;;;29.52;14.05;;;;;;;0.45;69.23;101520.44;10393144;28;20045;-69
2022/02/26 03:26:44;;;;;;;50.22;16.70;;;;;;;0.46;69.26;101528.16;10391597;28;20072;-69
2022/02/26 03:31:46;;;;;;;32.85;14.25;;;;;;;0.42;69.12;101528.16;10378543;28;20116;-69
2022/02/26 03:36:51;;;;;;;39.22;14.77;;;;;;;0.36;69.02;101528.94;10391264;28;20574;-69
2022/02/26 03:41:52;;;;;;;367.63;20.02;;;;;;;0.21;69.26;101535.72;10391568;28;20064;-69
2022/02/26 03:46:55;;;;;;;504.63;28.00;;;;;;;-0.00;69.37;101543.22;10385489;28;20160;-68
2022/02/26 03:51:58;;;;;;;36.70;15.88;;;;;;;-0.13;69.98;101536.28;10385608;28;20141;-69
2022/02/26 03:57:00;;;;;;;36.88;15.20;;;;;;;-0.08;69.90;101544.88;10398129;28;20342;-68
2022/02/26 04:02:01;;;;;;;29.00;13.90;;;;;;;-0.02;69.90;101555.22;10398123;28;20041;-69
2022/02/26 04:07:07;;;;;;;29.52;12.80;;;;;;;-0.03;69.90;101553.50;10393876;28;20334;-69
2022/02/26 04:12:10;;;;;;;55.88;15.00;;;;;;;-0.07;69.99;101557.78;10390967;28;20052;-68
2022/02/26 04:17:11;;;;;;;202.70;22.30;;;;;;;-0.12;69.74;101563.69;10390779;28;20041;-69
2022/02/26 04:22:13;;;;;;;31.90;14.32;;;;;;;-0.14;69.76;101580.81;10391949;28;20111;-69
2022/02/26 04:27:15;;;;;;;49.20;17.10;;;;;;;-0.18;69.92;101582.50;10391466;28;20057;-69
2022/02/26 04:32:17;;;;;;;27.73;13.90;;;;;;;-0.22;69.79;101593.59;10374510;28;20073;-68
2022/02/26 04:37:20;;;;;;;39.28;14.85;;;;;;;-0.22;69.83;101601.31;10391142;28;20103;-68
2022/02/26 04:42:22;;;;;;;40.75;16.38;;;;;;;-0.27;69.82;101600.44;10390943;28;20052;-68
2022/02/26 04:47:24;;;;;;;40.08;14.20;;;;;;;-0.32;70.17;101599.50;10391347;28;20056;-69
2022/02/26 04:52:26;;;;;;;31.13;12.75;;;;;;;-0.34;70.03;101603.75;10390154;28;20140;-68
2022/02/26 04:57:27;;;;;;;35.50;13.63;;;;;;;-0.33;70.01;101598.63;10390295;28;20399;-68
2022/02/26 05:02:32;;;;;;;35.95;13.95;;;;;;;-0.31;69.89;101596.94;10390842;28;20061;-68
2022/02/26 05:07:34;;;;;;;50.83;17.08;;;;;;;-0.35;69.92;101600.31;10389737;28;20405;-68
2022/02/26 05:12:36;;;;;;;55.83;17.15;;;;;;;-0.40;69.84;101593.41;10389791;28;20049;-68
2022/02/26 05:17:39;;;;;;;43.50;16.23;;;;;;;-0.41;69.79;101600.25;10389822;28;20049;-68
2022/02/26 05:22:42;;;;;;;56.88;19.45;;;;;;;-0.54;70.01;101603.56;10389769;28;20416;-68
2022/02/26 05:27:44;;;;;;;37.75;16.60;;;;;;;-0.57;70.09;101621.47;10389663;28;20056;-69
2022/02/26 05:32:46;;;;;;;36.90;15.15;;;;;;;-0.60;70.10;101608.63;10388506;28;20132;-68
2022/02/26 05:37:48;;;;;;;31.17;14.23;;;;;;;-0.62;69.85;101617.13;10388610;28;20050;-68
2022/02/26 05:42:50;;;;;;;530.10;28.15;;;;;;;-0.63;69.92;101611.13;10389304;28;20068;-68
2022/02/26 05:47:51;;;;;;;467.67;23.92;;;;;;;-0.78;70.26;101620.38;10388415;28;20489;-68
2022/02/26 05:52:53;;;;;;;304.02;22.17;;;;;;;-0.77;70.14;101633.22;10387717;28;20045;-68
2022/02/26 05:57:55;;;;;;;249.82;22.05;;;;;;;-0.85;70.08;101611.72;10388462;28;20049;-67
2022/02/26 06:02:57;;;;;;;128.57;18.77;;;;;;;-0.84;70.22;101628.00;10387646;28;20058;-68
2022/02/26 06:07:58;;;;;;;177.25;19.38;;;;;;;-0.82;69.96;101637.41;10372895;28;20065;-67
2022/02/26 06:13:00;;;;;;;401.67;19.75;;;;;;;-0.97;70.40;101637.22;10386989;28;20079;-68
2022/02/26 06:18:02;;;;;;;335.55;24.38;;;;;;;-0.98;70.27;101635.47;10387371;28;20056;-68
2022/02/26 06:23:04;;;;;;;28.63;13.80;;;;;;;-0.90;70.06;101643.31;10387093;28;20053;-68
2022/02/26 06:28:05;;;;;;;128.85;17.80;;;;;;;-0.83;69.98;101657.94;10387181;28;20063;-68
2022/02/26 06:33:12;;;;;;;235.15;18.08;;;;;;;-0.74;69.99;101643.50;10386223;28;20049;-68
2022/02/26 06:38:14;;;;;;;558.35;25.02;;;;;;;-0.72;69.73;101654.69;10387256;28;20788;-67
2022/02/26 06:43:15;;;;;;;599.92;26.17;;;;;;;-0.75;69.67;101657.22;10386600;28;20045;-68
2022/02/26 06:48:17;;;;;;;481.20;23.17;;;;;;;-0.81;69.33;101657.13;10386404;28;20051;-67
2022/02/26 06:53:19;;;;;;;415.35;20.33;;;;;;;-0.75;69.81;101670.06;10386355;28;20050;-68
2022/02/26 06:58:21;;;;;;;589.65;28.80;;;;;;;-0.60;69.33;101670.28;10385099;28;20045;-68
2022/02/26 07:03:22;;;;;;;450.88;25.75;;;;;;;-0.48;69.25;101672.13;10385808;28;20080;-68
2022/02/26 07:08:26;;;;;;;336.73;18.20;;;;;;;-0.44;69.27;101679.91;10385636;28;20052;-68
2022/02/26 07:13:31;;;;;;;651.10;29.20;;;;;;;-0.34;69.23;101680.88;10383743;28;20535;-69
2022/02/26 07:18:32;;;;;;;374.02;17.25;;;;;;;-0.23;68.98;101701.59;10386285;28;20087;-69
2022/02/26 07:23:34;;;;;;;424.58;23.80;;;;;;;-0.17;68.91;101702.53;10385518;28;20045;-68
2022/02/26 07:28:36;;;;;;;492.35;22.50;;;;;;;-0.09;68.97;101705.19;10385631;28;20438;-69
2022/02/26 07:33:37;;;;;;;135.15;16.85;;;;;;;0.04;68.65;101720.75;10386462;28;20100;-68
2022/02/26 07:38:40;;;;;;;326.63;21.75;;;;;;;0.09;68.85;101720.81;10385435;28;20215;-68
2022/02/26 07:43:41;;;;;;;723.20;33.38;;;;;;;0.32;68.38;101722.78;10385397;28;20702;-69
2022/02/26 07:48:43;;;;;;;297.40;19.85;;;;;;;0.53;68.33;101737.56;10383096;28;20504;-68
2022/02/26 07:53:46;;;;;;;94.45;15.15;;;;;;;0.59;67.99;101747.09;10384554;28;20376;-69
2022/02/26 07:58:48;;;;;;;37.50;13.52;;;;;;;0.71;68.02;101742.06;10384737;28;20055;-69
2022/02/26 08:03:50;;;;;;;170.93;21.30;;;;;;;1.05;67.47;101754.34;10384862;28;20247;-68
2022/02/26 08:08:52;;;;;;;298.75;25.23;;;;;;;1.23;67.04;101760.53;10384051;28;20056;-68
2022/02/26 08:13:53;;;;;;;56.55;13.80;;;;;;;1.35;67.19;101759.72;10382761;28;20410;-68
2022/02/26 08:18:55;;;;;;;44.42;15.38;;;;;;;1.72;66.60;101765.97;10383859;28;20512;-68
2022/02/26 08:23:57;;;;;;;45.85;18.85;;;;;;;1.82;66.08;101772.91;10383461;28;20144;-68
2022/02/26 08:28:59;;;;;;;54.85;26.73;;;;;;;1.82;66.30;101778.06;10382642;28;20208;-68
2022/02/26 08:34:01;;;;;;;67.28;26.35;;;;;;;2.06;65.81;101773.88;10370097;28;20089;-68
2022/02/26 08:39:03;;;;;;;35.95;17.83;;;;;;;2.46;65.57;101780.03;10390288;28;20581;-65
2022/02/26 08:44:05;;;;;;;33.35;16.35;;;;;;;2.99;64.80;101783.56;10389627;28;20049;-65
2022/02/26 08:49:08;;;;;;;34.05;15.88;;;;;;;3.34;64.26;101793.03;10388029;28;20056;-66
2022/02/26 08:54:09;;;;;;;26.88;16.20;;;;;;;3.63;64.12;101788.69;10388581;28;20187;-66
2022/02/26 08:59:11;;;;;;;25.75;14.40;;;;;;;3.85;63.49;101801.59;10388109;28;20400;-65
2022/02/26 09:04:13;;;;;;;37.97;16.15;;;;;;;3.96;63.65;101798.13;10388974;28;20071;-65
2022/02/26 09:09:15;;;;;;;33.53;15.98;;;;;;;4.04;63.23;101789.47;10388093;28;20521;-65
2022/02/26 09:14:17;;;;;;;30.67;14.93;;;;;;;4.24;63.11;101794.56;10390322;28;20049;-66
2022/02/26 09:19:19;;;;;;;31.63;15.70;;;;;;;4.33;62.56;101795.38;10389884;28;20045;-65
2022/02/26 09:24:20;;;;;;;27.55;13.55;;;;;;;4.52;62.00;101793.56;10390928;28;20056;-66
2022/02/26 09:29:22;;;;;;;30.42;12.55;;;;;;;4.65;61.32;101796.09;10388918;28;20057;-66
2022/02/26 09:34:24;;;;;;;28.63;10.30;;;;;;;4.68;60.77;101798.66;10389515;28;20046;-66
2022/02/26 09:39:26;;;;;;;26.75;10.85;;;;;;;5.02;60.75;101791.50;10386858;28;20049;-66
2022/02/26 09:44:28;;;;;;;26.75;10.75;;;;;;;5.18;59.91;101792.25;10385874;28;20147;-66
2022/02/26 09:49:30;;;;;;;27.40;10.18;;;;;;;5.44;59.63;101790.28;10386654;28;20053;-66
2022/02/26 09:54:32;;;;;;;26.45;8.95;;;;;;;5.54;58.70;101784.13;10384946;28;20418;-66
2022/02/26 09:59:34;;;;;;;27.20;9.40;;;;;;;5.64;58.50;101798.72;10385828;28;20148;-66
2022/02/26 10:04:38;;;;;;;27.77;8.70;;;;;;;5.78;58.53;101799.44;10386167;28;20049;-66
2022/02/26 10:09:42;;;;;;;20.70;6.57;;;;;;;5.89;57.20;101802.81;10386242;28;20049;-66
2022/02/26 10:14:43;;;;;;;22.05;6.10;;;;;;;6.15;56.33;101800.75;10387924;28;20045;-66
2022/02/26 10:19:45;;;;;;;20.58;5.50;;;;;;;6.25;55.39;101785.94;10386385;28;20915;-66
2022/02/26 10:24:47;;;;;;;19.35;4.70;;;;;;;6.28;54.65;101785.91;10385334;28;20075;-66
2022/02/26 10:29:52;;;;;;;18.60;5.10;;;;;;;6.19;53.04;101791.19;10386996;28;20049;-65
2022/02/26 10:34:54;;;;;;;23.08;5.07;;;;;;;6.38;52.96;101786.66;10385824;28;20082;-66
2022/02/26 10:39:58;;;;;;;20.85;4.65;;;;;;;6.38;52.10;101786.66;10386328;28;20770;-66
2022/02/26 10:45:15;;;;;;;23.15;4.45;;;;;;;6.48;51.88;101772.66;10386941;28;20060;-66
2022/02/26 10:50:22;;;;;;;22.55;4.40;;;;;;;6.59;50.55;101782.03;10385822;28;20059;-66
2022/02/26 10:55:50;;;;;;;17.08;4.45;;;;;;;6.76;49.87;101769.63;10385591;28;20049;-66
2022/02/26 11:00:59;;;;;;;16.48;4.20;;;;;;;6.42;51.66;101772.72;10386090;28;20053;-65
2022/02/26 11:06:03;;;;;;;17.98;3.05;;;;;;;6.58;52.65;101769.03;10385127;28;20224;-66
2022/02/26 11:11:07;;;;;;;24.20;4.03;;;;;;;6.53;51.60;101776.06;10384645;28;20387;-66
2022/02/26 11:16:09;;;;;;;26.25;4.35;;;;;;;6.60;51.97;101772.47;10386554;28;20695;-66
2022/02/26 11:21:14;;;;;;;18.02;3.95;;;;;;;6.25;50.63;101771.22;10382714;28;20143;-66
2022/02/26 11:26:21;;;;;;;21.40;4.10;;;;;;;5.95;51.92;101771.56;10368904;28;20057;-65
2022/02/26 11:31:46;;;;;;;16.53;4.40;;;;;;;6.12;50.94;101768.78;10385984;28;20046;-66
2022/02/26 11:36:57;;;;;;;22.70;4.60;;;;;;;6.21;49.48;101773.84;10384660;28;20575;-66
2022/02/26 11:42:18;;;;;;;17.83;4.60;;;;;;;6.28;51.14;101760.81;10385803;28;20059;-66
2022/02/26 11:47:23;;;;;;;19.60;4.60;;;;;;;7.10;50.34;101754.38;10384376;28;20421;-66
2022/02/26 11:52:57;;;;;;;20.25;4.70;;;;;;;7.72;47.14;101745.41;10384783;28;20052;-66
2022/02/26 11:58:33;;;;;;;20.85;4.65;;;;;;;7.16;47.93;101739.50;10380492;28;20053;-67
2022/02/26 12:03:41;;;;;;;18.05;4.78;;;;;;;6.95;49.47;101733.81;10384456;28;20056;-66
2022/02/26 12:08:53;;;;;;;18.50;4.68;;;;;;;6.67;50.15;101729.91;10387662;28;20136;-66
2022/02/26 12:13:56;;;;;;;16.30;4.15;;;;;;;6.34;48.67;101724.34;10392669;28;20092;-66
2022/02/26 12:19:20;;;;;;;16.58;4.07;;;;;;;6.58;49.01;101727.44;10388899;28;20056;-66
2022/02/26 12:24:30;;;;;;;16.48;4.15;;;;;;;7.32;46.97;101719.28;10392224;28;20485;-67
2022/02/26 12:29:40;;;;;;;14.27;3.55;;;;;;;6.97;48.17;101726.84;10392198;28;20094;-66
2022/02/26 12:34:54;;;;;;;14.60;3.42;;;;;;;6.82;48.69;101714.94;10390669;28;20058;-66
2022/02/26 12:40:29;;;;;;;18.73;3.95;;;;;;;6.86;45.24;101703.59;10392115;28;20056;-66
2022/02/26 12:45:45;;;;;;;16.35;4.03;;;;;;;7.32;45.57;101701.06;10379402;28;20041;-66
2022/02/26 12:50:47;;;;;;;20.00;3.70;;;;;;;7.68;47.30;101691.69;10390788;28;20057;-66
2022/02/26 12:55:48;;;;;;;19.58;3.70;;;;;;;7.59;47.01;101684.06;10390825;28;20198;-66
2022/02/26 13:00:50;;;;;;;13.45;3.60;;;;;;;7.68;46.93;101684.72;10390937;28;20053;-66
2022/02/26 13:05:52;;;;;;;11.13;3.15;;;;;;;7.50;46.21;101674.69;10389765;28;20045;-66
2022/02/26 13:11:01;;;;;;;14.85;4.15;;;;;;;7.08;46.26;101668.53;10390562;28;20055;-66
2022/02/26 13:16:04;;;;;;;15.27;3.15;;;;;;;7.14;45.71;101649.38;10389434;28;20045;-66
2022/02/26 13:21:06;;;;;;;13.23;3.38;;;;;;;7.53;45.75;101643.38;10388718;28;20389;-66
2022/02/26 13:26:08;;;;;;;18.35;3.65;;;;;;;7.85;45.90;101643.53;10389519;28;20053;-65
2022/02/26 13:31:10;;;;;;;13.80;3.53;;;;;;;7.79;45.38;101637.63;10389209;28;20144;-67
2022/02/26 13:36:13;;;;;;;17.30;3.85;;;;;;;7.64;46.93;101633.59;10388957;28;20056;-66
2022/02/26 13:41:14;;;;;;;12.82;3.15;;;;;;;7.83;47.36;101634.06;10389589;28;20064;-66
2022/02/26 13:46:20;;;;;;;15.65;3.35;;;;;;;7.64;45.79;101627.53;10388187;28;20055;-67
2022/02/26 13:51:22;;;;;;;14.45;3.08;;;;;;;7.61;46.58;101609.38;10388899;28;20056;-67
2022/02/26 13:56:28;;;;;;;16.30;3.45;;;;;;;7.91;45.10;101617.41;10388755;28;20506;-65
2022/02/26 14:01:30;;;;;;;12.85;3.15;;;;;;;8.15;45.32;101622.97;10386925;28;20057;-64
2022/02/26 14:06:38;;;;;;;11.30;2.92;;;;;;;7.70;43.84;101615.25;10387983;28;20049;-65
2022/02/26 14:11:40;;;;;;;13.57;2.90;;;;;;;7.33;44.83;101611.69;10387860;28;20075;-66
2022/02/26 14:16:42;;;;;;;10.48;3.28;;;;;;;7.49;45.11;101604.44;10382466;28;20266;-66
2022/02/26 14:21:45;;;;;;;11.93;2.70;;;;;;;7.41;43.12;101601.97;10385405;28;20059;-66
2022/02/26 14:26:51;;;;;;;12.50;2.65;;;;;;;7.28;43.33;101590.09;10381643;28;20136;-66
2022/02/26 14:32:15;;;;;;;12.60;2.75;;;;;;;7.08;42.24;101584.44;10384947;28;20061;-66
2022/02/26 14:37:16;;;;;;;14.40;2.90;;;;;;;7.18;44.13;101584.19;10385573;28;20045;-66
2022/02/26 14:42:18;;;;;;;8.27;2.40;;;;;;;7.30;43.51;101570.13;10385574;28;20059;-66
2022/02/26 14:47:20;;;;;;;11.00;2.70;;;;;;;7.16;43.42;101570.38;10385684;28;20060;-65
2022/02/26 14:52:21;;;;;;;8.25;2.45;;;;;;;7.09;43.64;101560.13;10380171;28;20054;-65
2022/02/26 14:57:23;;;;;;;12.57;2.90;;;;;;;7.18;43.16;101555.59;10385875;28;20115;-65
2022/02/26 15:02:25;;;;;;;11.25;2.33;;;;;;;7.02;43.11;101561.16;10384137;28;20045;-65
2022/02/26 15:07:28;;;;;;;12.40;2.97;;;;;;;7.06;43.47;101550.63;10384111;28;20041;-66
2022/02/26 15:12:30;;;;;;;11.40;2.65;;;;;;;7.13;43.61;101552.22;10384710;28;20171;-65
2022/02/26 15:17:32;;;;;;;11.38;2.95;;;;;;;7.23;43.53;101544.22;10376568;28;20141;-65
2022/02/26 15:22:34;;;;;;;10.65;3.28;;;;;;;7.40;43.89;101545.59;10382726;28;20045;-66
2022/02/26 15:27:36;;;;;;;12.35;2.50;;;;;;;7.48;43.14;101538.50;10384239;28;20119;-65
2022/02/26 15:32:40;;;;;;;14.07;2.60;;;;;;;7.32;42.35;101542.31;10383596;28;20053;-65
2022/02/26 15:37:42;;;;;;;11.73;2.80;;;;;;;7.40;42.29;101531.72;10383732;28;20061;-65
2022/02/26 15:42:44;;;;;;;10.55;2.70;;;;;;;7.37;42.98;101537.84;10382905;28;20057;-66
2022/02/26 15:47:47;;;;;;;10.90;2.60;;;;;;;7.22;43.38;101534.72;10392719;28;20099;-65
2022/02/26 15:52:49;;;;;;;12.00;2.63;;;;;;;7.07;43.63;101530.69;10391215;28;20057;-65
2022/02/26 15:57:51;;;;;;;10.40;2.38;;;;;;;6.81;43.71;101536.41;10391939;28;20081;-65
2022/02/26 16:02:53;;;;;;;14.02;2.42;;;;;;;6.87;44.04;101522.41;10391717;28;20049;-65
2022/02/26 16:07:55;;;;;;;13.32;2.75;;;;;;;6.76;43.57;101529.56;10389917;28;20049;-64
2022/02/26 16:12:57;;;;;;;13.98;2.95;;;;;;;6.65;43.82;101526.31;10391991;28;20063;-65
2022/02/26 16:17:58;;;;;;;9.20;2.30;;;;;;;6.64;44.17;101525.44;10390804;28;20129;-64
2022/02/26 16:23:01;;;;;;;11.90;2.78;;;;;;;6.47;43.79;101526.66;10390874;28;20255;-67
2022/02/26 16:28:03;;;;;;;13.13;3.22;;;;;;;6.37;44.59;101532.88;10385563;28;20051;-65
2022/02/26 16:33:05;;;;;;;15.00;6.90;;;;;;;6.28;44.26;101526.09;10383985;28;20397;-66
2022/02/26 16:38:07;;;;;;;14.15;5.88;;;;;;;6.09;44.71;101522.91;10382360;28;20196;-65
2022/02/26 16:43:08;;;;;;;17.33;5.35;;;;;;;5.96;44.66;101529.16;10389179;28;20439;-65
2022/02/26 16:48:10;;;;;;;15.77;4.70;;;;;;;5.85;45.95;101525.03;10390183;28;20409;-65
2022/02/26 16:53:15;;;;;;;15.88;3.38;;;;;;;5.69;45.75;101528.72;10386514;28;20053;-65
2022/02/26 16:58:17;;;;;;;12.38;3.85;;;;;;;5.43;46.51;101532.53;10388202;28;20056;-65
2022/02/26 17:03:19;;;;;;;12.15;3.38;;;;;;;5.28;46.64;101537.09;10388981;28;20349;-65
2022/02/26 17:08:21;;;;;;;10.80;3.53;;;;;;;5.05;48.00;101544.28;10389577;28;20056;-65
2022/02/26 17:13:23;;;;;;;14.88;3.60;;;;;;;4.83;49.15;101547.97;10390058;28;20045;-65
2022/02/26 17:18:24;;;;;;;30.90;14.20;;;;;;;4.59;50.32;101560.31;10389387;28;20053;-66
2022/02/26 17:23:26;;;;;;;15.73;5.88;;;;;;;4.38;51.36;101555.34;10386493;28;20485;-66
2022/02/26 17:28:28;;;;;;;9.70;3.25;;;;;;;4.22;51.89;101560.66;10388698;28;20289;-66
2022/02/26 17:33:30;;;;;;;13.93;6.78;;;;;;;4.07;52.30;101568.56;10388442;28;20053;-65
2022/02/26 17:38:33;;;;;;;14.70;4.57;;;;;;;3.90;52.85;101566.06;10387778;28;20103;-66
2022/02/26 17:43:34;;;;;;;11.77;2.97;;;;;;;3.76;53.83;101567.84;10388209;28;20049;-67
2022/02/26 17:48:36;;;;;;;21.00;8.38;;;;;;;3.60;54.04;101568.81;10387490;28;20057;-66
2022/02/26 17:53:38;;;;;;;15.50;6.53;;;;;;;3.50;54.73;101580.03;10385842;28;20145;-66
2022/02/26 17:58:40;;;;;;;19.13;4.63;;;;;;;3.36;54.92;101581.84;10387113;28;20398;-66
2022/02/26 18:03:41;;;;;;;18.23;4.45;;;;;;;3.21;55.22;101579.34;10387890;28;20053;-66
2022/02/26 18:08:44;;;;;;;14.18;4.05;;;;;;;3.14;55.00;101585.38;10384005;28;20532;-66
2022/02/26 18:13:46;;;;;;;14.00;4.00;;;;;;;2.92;55.99;101588.03;10387020;28;20083;-66
2022/02/26 18:18:48;;;;;;;11.57;4.05;;;;;;;2.86;56.32;101582.00;10385911;28;20056;-66
2022/02/26 18:23:53;;;;;;;12.02;4.03;;;;;;;2.75;56.87;101589.78;10386918;28;20053;-66
2022/02/26 18:28:55;;;;;;;17.52;7.07;;;;;;;2.71;57.04;101585.47;10386735;28;20208;-66
2022/02/26 18:33:57;;;;;;;20.75;7.55;;;;;;;2.64;57.44;101590.66;10387109;28;20151;-68
2022/02/26 18:38:59;;;;;;;20.98;8.68;;;;;;;2.53;57.91;101594.97;10385751;28;20622;-69
2022/02/26 18:44:01;;;;;;;24.75;11.30;;;;;;;2.33;58.20;101597.56;10385090;28;20440;-69
2022/02/26 18:49:04;;;;;;;23.33;9.35;;;;;;;2.27;58.51;101600.16;10385317;28;20469;-68
2022/02/26 18:54:06;;;;;;;20.17;6.55;;;;;;;2.19;58.45;101601.88;10379168;28;20049;-68
2022/02/26 18:59:08;;;;;;;11.43;5.30;;;;;;;2.07;58.73;101596.69;10384394;28;20405;-68
2022/02/26 19:04:10;;;;;;;16.35;5.90;;;;;;;1.95;58.93;101604.41;10384550;28;20053;-68
2022/02/26 19:09:11;;;;;;;16.70;5.22;;;;;;;1.88;59.27;101602.66;10372968;28;20545;-68
2022/02/26 19:14:13;;;;;;;13.23;5.53;;;;;;;1.72;59.57;101600.91;10382678;28;20054;-69
2022/02/26 19:19:15;;;;;;;14.88;5.38;;;;;;;1.53;59.92;101599.13;10382960;28;20212;-68
2022/02/26 19:24:16;;;;;;;16.48;4.78;;;;;;;1.36;59.82;101602.50;10384849;28;20136;-68
2022/02/26 19:29:18;;;;;;;13.15;4.47;;;;;;;1.28;60.27;101603.31;10376628;28;20060;-69
2022/02/26 19:34:20;;;;;;;17.58;4.68;;;;;;;1.30;60.52;101594.75;10384834;28;20063;-68
2022/02/26 19:39:22;;;;;;;11.82;4.05;;;;;;;1.24;60.76;101596.41;10380400;28;20049;-68
2022/02/26 19:44:24;;;;;;;17.23;5.60;;;;;;;1.12;60.87;101588.63;10366063;28;20049;-68
2022/02/26 19:49:26;;;;;;;15.93;5.55;;;;;;;0.86;60.78;101592.78;10383819;28;20521;-68
2022/02/26 19:54:28;;;;;;;16.02;4.75;;;;;;;0.79;61.50;101591.88;10377927;28;20462;-68
2022/02/26 19:59:33;;;;;;;12.35;4.43;;;;;;;0.86;61.51;101593.66;10382795;28;20328;-68
2022/02/26 20:04:35;;;;;;;22.38;9.65;;;;;;;0.89;61.66;101596.22;10383345;28;20155;-68
2022/02/26 20:09:37;;;;;;;15.23;5.55;;;;;;;0.87;61.79;101603.09;10378134;28;20053;-68
2022/02/26 20:14:38;;;;;;;18.42;6.47;;;;;;;0.82;61.68;101606.50;10383392;28;20083;-68
2022/02/26 20:19:40;;;;;;;18.20;7.22;;;;;;;0.72;61.99;101608.16;10383644;28;20052;-67
2022/02/26 20:24:42;;;;;;;17.85;5.85;;;;;;;0.75;61.89;101615.06;10381325;28;20479;-68
2022/02/26 20:29:44;;;;;;;16.10;5.88;;;;;;;0.80;62.23;101624.53;10383384;28;20055;-68
2022/02/26 20:34:47;;;;;;;13.05;5.93;;;;;;;0.88;62.13;101619.41;10391230;28;20064;-68
2022/02/26 20:39:49;;;;;;;17.02;4.63;;;;;;;0.98;61.92;101616.03;10390558;28;20320;-68
2022/02/26 20:44:52;;;;;;;13.27;4.75;;;;;;;0.88;62.13;101622.00;10389564;28;20297;-68
2022/02/26 20:49:54;;;;;;;15.45;5.53;;;;;;;0.85;62.27;101607.38;10391260;28;20133;-68
2022/02/26 20:54:56;;;;;;;18.77;5.63;;;;;;;0.86;62.20;101616.84;10390087;28;20417;-68
2022/02/26 20:59:58;;;;;;;14.93;6.15;;;;;;;0.90;62.43;101623.72;10390497;28;20555;-68
2022/02/26 21:04:59;;;;;;;20.98;6.20;;;;;;;1.00;62.49;101615.19;10390033;28;20057;-68
2022/02/26 21:10:04;;;;;;;22.00;6.93;;;;;;;1.06;62.05;101606.63;10386351;28;20484;-68
2022/02/26 21:15:06;;;;;;;16.65;7.70;;;;;;;0.86;62.13;101614.25;10389688;28;20545;-67
2022/02/26 21:20:10;;;;;;;22.25;6.97;;;;;;;0.95;62.46;101605.72;10390235;28;20050;-68
2022/02/26 21:25:12;;;;;;;17.35;6.30;;;;;;;0.88;62.40;101602.25;10370947;28;20061;-67
2022/02/26 21:30:14;;;;;;;14.27;5.40;;;;;;;0.82;62.25;101612.53;10382120;28;20049;-68
2022/02/26 21:35:16;;;;;;;18.17;6.03;;;;;;;0.76;62.36;101607.31;10389510;28;20128;-67
2022/02/26 21:40:18;;;;;;;16.85;7.20;;;;;;;0.68;62.86;101613.28;10387485;28;20165;-68
2022/02/26 21:45:20;;;;;;;18.25;7.63;;;;;;;0.57;63.14;101617.47;10388123;28;20068;-67
2022/02/26 21:50:22;;;;;;;14.00;5.82;;;;;;;0.40;62.93;101618.19;10386206;28;20062;-68
2022/02/26 21:55:24;;;;;;;16.80;7.63;;;;;;;0.26;63.27;101616.38;10386843;28;20060;-67
2022/02/26 22:00:26;;;;;;;17.83;6.20;;;;;;;0.37;63.47;101607.03;10389136;28;20050;-67
2022/02/26 22:05:28;;;;;;;18.92;5.60;;;;;;;0.38;63.11;101601.88;10387728;28;20678;-67
2022/02/26 22:10:29;;;;;;;19.73;5.90;;;;;;;0.24;63.53;101605.22;10388611;28;20148;-67
2022/02/26 22:15:32;;;;;;;30.83;15.07;;;;;;;0.00;63.51;101605.81;10387665;28;20585;-67
2022/02/26 22:20:33;;;;;;;26.30;14.25;;;;;;;0.00;63.93;101603.25;10388388;28;20049;-67
2022/02/26 22:25:35;;;;;;;20.77;9.25;;;;;;;-0.15;63.61;101609.97;10388015;28;20049;-68
2022/02/26 22:30:37;;;;;;;20.90;7.90;;;;;;;-0.20;64.20;101615.06;10387598;28;20383;-67
2022/02/26 22:35:39;;;;;;;20.83;8.55;;;;;;;-0.24;64.51;101613.31;10387748;28;20115;-67
2022/02/26 22:40:45;;;;;;;14.50;6.97;;;;;;;-0.19;64.79;101610.78;10386662;28;20124;-68
2022/02/26 22:45:47;;;;;;;17.67;6.72;;;;;;;-0.39;64.67;101608.84;10387290;28;20052;-67
2022/02/26 22:50:49;;;;;;;20.65;6.55;;;;;;;-0.52;65.11;101606.13;10385918;28;20045;-69
2022/02/26 22:55:52;;;;;;;19.05;7.03;;;;;;;-0.43;65.10;101608.78;10383822;28;20144;-68
2022/02/26 23:01:12;;;;;;;19.27;7.35;;;;;;;-0.54;64.79;101600.09;10386124;28;20053;-68